Forside
METAR-TAF:

METAR-TAF

Lufthavne :

Flughafen Hamburg

Hamborg, Tyskland

Breddekreds: 53-38N, længdekreds: 010-00E, højde: 16 m

Aktuelle vejr

Denne rapport blev lavet for 16 minutter siden, kl. 10:20 UTC
Vind 9 kt fra sydvest, varierende mellem syd og vest
Temperatur 27°C
Fugtighed 51%
Tryk 1007 hPa
Sigt 10 km eller mere
Nogle få skyer i en højde af 3900 ft

METAR: EDDH 161020Z AUTO 22009KT 180V270 9999 FEW039 27/16 Q1007 NOSIG

Tid: 12:36 (10:36 UTC)

Vejrudsigter

Denne rapport blev lavet for 5 timer og 36 minutter siden, kl. 05:00 UTC
Foreløbig gælder fra 16 på 06 UTC til 17 på 12 UTC
Vind 6 kt fra sydvest
Sigt 10 km eller mere
ingen skyer under 1500m og ingen cumulonimbus
Sandsynlighed 30% :
Midlertidig
fra 16 på 13 UTC til 16 på 17 UTC
Brudte skyer i en højde af 4000 ft, Cumulonimbus.
tordenbyger, regn
ændring
fra 16 på 17 UTC til 16 på 19 UTC
Vind 2 kt fra varierende retninger

TAF: EDDH 160500Z 1606/1712 23006KT CAVOK PROB30 TEMPO 1613/1617 TSRA BKN040CB BECMG 1617/1619 VRB02KT

Vejrobservationer og prognoser fra mere end 4000 lufthavne (METAR og TAF).

De gule og røde prikker repræsenterer de meteorologiske stationer.

Flyt musen over at se navnet på stationen.

Så klik over at se vejr observationer og prognoser.

At skifte det kort: Klik på de grønne knapper med et sort kors for at zoome ind; på den grønne knap med en bindestreg for at zoome ud; eller på de grønne pile for tilstødende kort.


METAR-TAF: